YZR7453 ZSNJ-ZYHB
Flight info
| Callsign | YZR7453 |
|---|---|
| Flight time | 2h 20m |
| Altitude | 31100 |
| Route | OF W178 RUXEL GURIL MABEB XDX URBAD W172 IGDEG W173 NIXEP W8 DOBGA W202 UDETI A588 NULRA W206 MAGBI W656 ISLUK W629 LARUN |
| Aircraft | B744/H-SDE2E3FGILRWXY/LB2 |
Departure
| Time | 2026-05-06 00:44 |
|---|---|
| Airport | Nanjing Lukou International Airport (ZSNJ) |
Arrival
| Time | 2026-05-06 03:04 |
|---|---|
| Airport | Harbin Taiping International Airport (ZYHB) |
| Time | Latitude | Longitude | Altitude | Speed | Heading |
|---|---|---|---|---|---|
| 2026-05-06 00:13 | 31.74254 | 118.87054 | 60 ft | 0 kts | 148° |
| 2026-05-06 00:28 | 31.74262 | 118.87048 | 60 ft | 2 kts | 147° |
| 2026-05-06 00:28 | 31.74274 | 118.87038 | 60 ft | 2 kts | 148° |
| 2026-05-06 00:28 | 31.74287 | 118.87029 | 60 ft | 2 kts | 148° |
| 2026-05-06 00:28 | 31.74300 | 118.87020 | 60 ft | 2 kts | 157° |
| 2026-05-06 00:29 | 31.74315 | 118.87016 | 60 ft | 2 kts | 183° |
| 2026-05-06 00:29 | 31.74330 | 118.87020 | 60 ft | 2 kts | 205° |
| 2026-05-06 00:29 | 31.74342 | 118.87030 | 60 ft | 2 kts | 227° |
| 2026-05-06 00:29 | 31.74348 | 118.87038 | 60 ft | 0 kts | 239° |
| 2026-05-06 00:30 | 31.74350 | 118.87041 | 60 ft | 0 kts | 239° |
| 2026-05-06 00:34 | 31.74348 | 118.87038 | 60 ft | 2 kts | 239° |
| 2026-05-06 00:35 | 31.74331 | 118.87006 | 60 ft | 6 kts | 239° |
| 2026-05-06 00:35 | 31.74313 | 118.86958 | 60 ft | 6 kts | 271° |
| 2026-05-06 00:35 | 31.74338 | 118.86917 | 60 ft | 6 kts | 324° |
| 2026-05-06 00:35 | 31.74357 | 118.86871 | 60 ft | 6 kts | 266° |
| 2026-05-06 00:36 | 31.74338 | 118.86817 | 60 ft | 7 kts | 237° |
| 2026-05-06 00:36 | 31.74309 | 118.86763 | 60 ft | 8 kts | 238° |
| 2026-05-06 00:36 | 31.74277 | 118.86704 | 60 ft | 8 kts | 238° |
| 2026-05-06 00:36 | 31.74243 | 118.86640 | 60 ft | 9 kts | 238° |
| 2026-05-06 00:37 | 31.74206 | 118.86571 | 60 ft | 10 kts | 238° |
| 2026-05-06 00:37 | 31.74167 | 118.86498 | 60 ft | 11 kts | 238° |
| 2026-05-06 00:37 | 31.74124 | 118.86419 | 60 ft | 11 kts | 238° |
| 2026-05-06 00:37 | 31.74080 | 118.86337 | 60 ft | 12 kts | 238° |
| 2026-05-06 00:38 | 31.74032 | 118.86247 | 60 ft | 13 kts | 238° |
| 2026-05-06 00:38 | 31.73982 | 118.86153 | 60 ft | 13 kts | 238° |
| 2026-05-06 00:38 | 31.73929 | 118.86054 | 60 ft | 14 kts | 238° |
| 2026-05-06 00:38 | 31.73875 | 118.85952 | 60 ft | 15 kts | 238° |
| 2026-05-06 00:39 | 31.73817 | 118.85844 | 60 ft | 15 kts | 238° |
| 2026-05-06 00:39 | 31.73757 | 118.85732 | 60 ft | 16 kts | 238° |
| 2026-05-06 00:39 | 31.73695 | 118.85616 | 60 ft | 17 kts | 238° |
| 2026-05-06 00:39 | 31.73631 | 118.85494 | 60 ft | 17 kts | 238° |
| 2026-05-06 00:40 | 31.73564 | 118.85368 | 60 ft | 18 kts | 238° |
| 2026-05-06 00:40 | 31.73495 | 118.85240 | 60 ft | 18 kts | 238° |
| 2026-05-06 00:40 | 31.73424 | 118.85107 | 60 ft | 19 kts | 238° |
| 2026-05-06 00:40 | 31.73350 | 118.84969 | 60 ft | 20 kts | 238° |
| 2026-05-06 00:41 | 31.73286 | 118.84849 | 60 ft | 15 kts | 238° |
| 2026-05-06 00:41 | 31.73240 | 118.84763 | 60 ft | 10 kts | 238° |
| 2026-05-06 00:41 | 31.73243 | 118.84688 | 60 ft | 10 kts | 317° |
| 2026-05-06 00:41 | 31.73302 | 118.84644 | 60 ft | 10 kts | 329° |
| 2026-05-06 00:42 | 31.73366 | 118.84622 | 60 ft | 9 kts | 19° |
| 2026-05-06 00:42 | 31.73409 | 118.84682 | 60 ft | 9 kts | 59° |
| 2026-05-06 00:42 | 31.73425 | 118.84713 | 60 ft | 0 kts | 58° |
| 2026-05-06 00:42 | 31.73428 | 118.84718 | 60 ft | 5 kts | 58° |
| 2026-05-06 00:43 | 31.73535 | 118.84918 | 60 ft | 61 kts | 58° |
| 2026-05-06 00:43 | 31.73887 | 118.85576 | 60 ft | 127 kts | 58° |
| 2026-05-06 00:43 | 31.74465 | 118.86656 | 63 ft | 182 kts | 60° |
| 2026-05-06 00:43 | 31.75196 | 118.88010 | 328 ft | 207 kts | 59° |
| 2026-05-06 00:44 | 31.75985 | 118.89465 | 976 ft | 213 kts | 60° |
| 2026-05-06 00:44 | 31.76774 | 118.90940 | 1702 ft | 217 kts | 60° |
| 2026-05-06 00:44 | 31.77579 | 118.92449 | 2349 ft | 220 kts | 60° |
| 2026-05-06 00:44 | 31.78385 | 118.93973 | 2931 ft | 226 kts | 60° |
| 2026-05-06 00:45 | 31.79250 | 118.95604 | 3439 ft | 238 kts | 59° |
| 2026-05-06 00:45 | 31.80113 | 118.97232 | 4106 ft | 239 kts | 59° |
| 2026-05-06 00:45 | 31.80996 | 118.98889 | 4769 ft | 241 kts | 59° |
| 2026-05-06 00:45 | 31.81899 | 119.00579 | 5383 ft | 246 kts | 59° |
| 2026-05-06 00:46 | 31.82803 | 119.02279 | 5959 ft | 252 kts | 60° |
| 2026-05-06 00:46 | 31.83749 | 119.04061 | 6440 ft | 260 kts | 59° |
| 2026-05-06 00:46 | 31.84718 | 119.05896 | 6491 ft | 268 kts | 59° |
| 2026-05-06 00:46 | 31.85733 | 119.07751 | 6666 ft | 272 kts | 52° |
| 2026-05-06 00:47 | 31.87135 | 119.09276 | 6817 ft | 276 kts | 31° |
| 2026-05-06 00:47 | 31.88924 | 119.10141 | 6861 ft | 282 kts | 9° |
| 2026-05-06 00:47 | 31.90876 | 119.10228 | 6893 ft | 284 kts | 349° |
| 2026-05-06 00:47 | 31.92745 | 119.09519 | 6896 ft | 284 kts | 328° |
| 2026-05-06 00:48 | 31.94309 | 119.08097 | 6914 ft | 285 kts | 314° |
| 2026-05-06 00:48 | 31.95918 | 119.06676 | 6852 ft | 296 kts | 333° |
| 2026-05-06 00:48 | 31.97894 | 119.05898 | 7183 ft | 304 kts | 345° |
| 2026-05-06 00:48 | 31.99957 | 119.05310 | 7802 ft | 303 kts | 344° |
| 2026-05-06 00:49 | 32.01977 | 119.04674 | 8374 ft | 303 kts | 343° |
| 2026-05-06 00:49 | 32.04017 | 119.04037 | 8911 ft | 304 kts | 343° |
| 2026-05-06 00:49 | 32.06076 | 119.03394 | 9464 ft | 304 kts | 343° |
| 2026-05-06 00:49 | 32.08129 | 119.02752 | 9971 ft | 305 kts | 343° |
| 2026-05-06 00:50 | 32.10175 | 119.02108 | 10444 ft | 307 kts | 343° |
| 2026-05-06 00:50 | 32.12260 | 119.01441 | 10902 ft | 309 kts | 343° |
| 2026-05-06 00:50 | 32.14319 | 119.00792 | 11312 ft | 312 kts | 343° |
| 2026-05-06 00:50 | 32.16433 | 119.00130 | 11679 ft | 316 kts | 343° |
| 2026-05-06 00:51 | 32.18590 | 118.99442 | 12006 ft | 321 kts | 343° |
| 2026-05-06 00:51 | 32.20774 | 118.98753 | 12327 ft | 326 kts | 343° |
| 2026-05-06 00:51 | 32.22956 | 118.98061 | 12715 ft | 328 kts | 343° |
| 2026-05-06 00:51 | 32.25171 | 118.97356 | 13124 ft | 329 kts | 343° |
| 2026-05-06 00:52 | 32.27389 | 118.96652 | 13523 ft | 330 kts | 343° |
| 2026-05-06 00:52 | 32.29609 | 118.95949 | 13918 ft | 331 kts | 343° |
| 2026-05-06 00:52 | 32.31839 | 118.95244 | 14294 ft | 332 kts | 343° |
| 2026-05-06 00:52 | 32.34071 | 118.94540 | 14659 ft | 334 kts | 343° |
| 2026-05-06 00:53 | 32.36349 | 118.93938 | 15000 ft | 336 kts | 349° |
| 2026-05-06 00:53 | 32.38644 | 118.93489 | 15335 ft | 339 kts | 348° |
| 2026-05-06 00:53 | 32.40973 | 118.93005 | 15677 ft | 341 kts | 348° |
| 2026-05-06 00:53 | 32.43320 | 118.92519 | 16020 ft | 341 kts | 348° |
| 2026-05-06 00:54 | 32.45649 | 118.91864 | 16345 ft | 342 kts | 343° |
| 2026-05-06 00:54 | 32.47944 | 118.91132 | 16667 ft | 343 kts | 343° |
| 2026-05-06 00:54 | 32.50252 | 118.90411 | 16973 ft | 345 kts | 343° |
| 2026-05-06 00:54 | 32.52587 | 118.89673 | 17263 ft | 348 kts | 343° |
| 2026-05-06 00:55 | 32.54930 | 118.88949 | 17556 ft | 350 kts | 345° |
| 2026-05-06 00:55 | 32.57317 | 118.88330 | 17838 ft | 351 kts | 344° |
| 2026-05-06 00:55 | 32.59692 | 118.87587 | 18141 ft | 353 kts | 343° |
| 2026-05-06 00:55 | 32.62058 | 118.86861 | 18458 ft | 353 kts | 343° |
| 2026-05-06 00:56 | 32.64473 | 118.86118 | 18786 ft | 354 kts | 343° |
| 2026-05-06 00:56 | 32.66826 | 118.85399 | 19125 ft | 354 kts | 343° |
| 2026-05-06 00:56 | 32.69212 | 118.84673 | 19468 ft | 354 kts | 343° |
| 2026-05-06 00:56 | 32.71602 | 118.83948 | 19810 ft | 354 kts | 343° |
| 2026-05-06 00:57 | 32.73997 | 118.83225 | 20132 ft | 358 kts | 343° |
| 2026-05-06 00:57 | 32.76451 | 118.82483 | 20591 ft | 365 kts | 343° |
| 2026-05-06 00:57 | 32.78920 | 118.81744 | 21263 ft | 366 kts | 343° |
| 2026-05-06 00:57 | 32.81401 | 118.81000 | 21822 ft | 370 kts | 343° |
| 2026-05-06 00:58 | 32.83898 | 118.80260 | 22428 ft | 371 kts | 343° |
| 2026-05-06 00:58 | 32.86387 | 118.79526 | 22984 ft | 373 kts | 343° |
| 2026-05-06 00:58 | 32.88906 | 118.78782 | 23564 ft | 375 kts | 343° |
| 2026-05-06 00:58 | 32.91448 | 118.78036 | 24118 ft | 377 kts | 343° |
| 2026-05-06 00:59 | 32.93998 | 118.77256 | 24626 ft | 379 kts | 341° |
| 2026-05-06 00:59 | 32.96534 | 118.76381 | 25198 ft | 379 kts | 341° |
| 2026-05-06 00:59 | 32.99047 | 118.75534 | 25644 ft | 382 kts | 341° |
| 2026-05-06 00:59 | 33.01632 | 118.74659 | 26134 ft | 383 kts | 341° |
| 2026-05-06 01:00 | 33.04200 | 118.73789 | 26615 ft | 385 kts | 341° |
| 2026-05-06 01:00 | 33.06757 | 118.72930 | 27099 ft | 385 kts | 341° |
| 2026-05-06 01:00 | 33.09346 | 118.72047 | 27503 ft | 388 kts | 339° |
| 2026-05-06 01:00 | 33.11898 | 118.70931 | 27902 ft | 389 kts | 336° |
| 2026-05-06 01:01 | 33.14399 | 118.69764 | 28326 ft | 390 kts | 336° |
| 2026-05-06 01:01 | 33.16945 | 118.68610 | 28757 ft | 391 kts | 337° |
| 2026-05-06 01:01 | 33.19500 | 118.67438 | 29182 ft | 392 kts | 336° |
| 2026-05-06 01:01 | 33.22068 | 118.66263 | 29599 ft | 393 kts | 338° |
| 2026-05-06 01:02 | 33.24736 | 118.65434 | 29959 ft | 398 kts | 350° |
| 2026-05-06 01:02 | 33.27494 | 118.65419 | 30278 ft | 406 kts | 4° |
| 2026-05-06 01:02 | 33.30302 | 118.66010 | 30600 ft | 410 kts | 6° |
| 2026-05-06 01:02 | 33.33112 | 118.66601 | 30874 ft | 413 kts | 5° |
| 2026-05-06 01:03 | 33.35986 | 118.67159 | 31036 ft | 420 kts | 5° |
| 2026-05-06 01:03 | 33.41874 | 118.68321 | 31153 ft | 439 kts | 5° |
| 2026-05-06 01:03 | 33.44926 | 118.68922 | 31137 ft | 451 kts | 5° |
| 2026-05-06 01:04 | 33.48088 | 118.69546 | 31119 ft | 462 kts | 6° |
| 2026-05-06 01:04 | 33.54169 | 118.71035 | 31066 ft | 470 kts | 4° |
| 2026-05-06 01:05 | 33.60675 | 118.72154 | 31035 ft | 471 kts | 4° |
| 2026-05-06 01:05 | 33.67162 | 118.73289 | 31008 ft | 469 kts | 4° |
| 2026-05-06 01:06 | 33.73625 | 118.74417 | 31005 ft | 470 kts | 4° |
| 2026-05-06 01:06 | 33.80142 | 118.75554 | 31013 ft | 471 kts | 4° |
| 2026-05-06 01:07 | 33.86634 | 118.76685 | 31015 ft | 471 kts | 4° |
| 2026-05-06 01:07 | 33.93102 | 118.77874 | 31016 ft | 470 kts | 3° |
| 2026-05-06 01:08 | 33.99609 | 118.78933 | 31025 ft | 471 kts | 4° |
| 2026-05-06 01:08 | 34.06128 | 118.80035 | 31019 ft | 471 kts | 4° |
| 2026-05-06 01:09 | 34.12620 | 118.81083 | 31021 ft | 472 kts | 3° |
| 2026-05-06 01:09 | 34.19161 | 118.82162 | 31013 ft | 472 kts | 3° |
| 2026-05-06 01:10 | 34.25525 | 118.84187 | 30967 ft | 482 kts | 22° |
| 2026-05-06 01:10 | 34.31302 | 118.88376 | 31014 ft | 487 kts | 25° |
| 2026-05-06 01:11 | 34.37114 | 118.92636 | 31009 ft | 488 kts | 26° |
| 2026-05-06 01:11 | 34.42859 | 118.96928 | 31001 ft | 485 kts | 26° |
| 2026-05-06 01:12 | 34.48618 | 119.01266 | 30994 ft | 486 kts | 27° |
| 2026-05-06 01:12 | 34.54367 | 119.05602 | 30999 ft | 487 kts | 27° |
| 2026-05-06 01:13 | 34.60099 | 119.09951 | 31000 ft | 488 kts | 26° |
| 2026-05-06 01:13 | 34.65855 | 119.14312 | 31002 ft | 487 kts | 26° |
| 2026-05-06 01:14 | 34.74464 | 119.20858 | 30997 ft | 487 kts | 27° |
| 2026-05-06 01:14 | 34.80211 | 119.25237 | 31000 ft | 488 kts | 26° |
| 2026-05-06 01:15 | 34.85945 | 119.29607 | 30998 ft | 487 kts | 27° |
| 2026-05-06 01:15 | 34.91730 | 119.34035 | 31010 ft | 488 kts | 26° |
| 2026-05-06 01:16 | 34.97451 | 119.38417 | 31015 ft | 487 kts | 27° |
| 2026-05-06 01:16 | 35.03160 | 119.42792 | 31004 ft | 486 kts | 26° |
| 2026-05-06 01:17 | 35.08911 | 119.47213 | 31007 ft | 487 kts | 26° |
| 2026-05-06 01:17 | 35.14654 | 119.51636 | 31016 ft | 487 kts | 26° |
| 2026-05-06 01:18 | 35.20391 | 119.56054 | 30997 ft | 487 kts | 26° |
| 2026-05-06 01:18 | 35.26113 | 119.60478 | 31003 ft | 487 kts | 26° |
| 2026-05-06 01:19 | 35.31845 | 119.64909 | 31010 ft | 487 kts | 26° |
| 2026-05-06 01:19 | 35.37530 | 119.69320 | 30985 ft | 487 kts | 27° |
| 2026-05-06 01:20 | 35.43303 | 119.73801 | 31011 ft | 488 kts | 27° |
| 2026-05-06 01:20 | 35.48750 | 119.78801 | 30991 ft | 494 kts | 37° |
| 2026-05-06 01:21 | 35.53960 | 119.84243 | 31007 ft | 491 kts | 34° |
| 2026-05-06 01:21 | 35.59236 | 119.89639 | 31009 ft | 493 kts | 34° |
| 2026-05-06 01:22 | 35.64477 | 119.94971 | 31007 ft | 492 kts | 34° |
| 2026-05-06 01:22 | 35.69626 | 120.00574 | 31011 ft | 495 kts | 37° |
| 2026-05-06 01:23 | 35.74716 | 120.06265 | 31010 ft | 494 kts | 37° |
| 2026-05-06 01:23 | 35.79792 | 120.11958 | 31020 ft | 494 kts | 37° |
| 2026-05-06 01:24 | 35.84850 | 120.17654 | 31014 ft | 493 kts | 37° |
| 2026-05-06 01:24 | 35.89909 | 120.23368 | 31019 ft | 493 kts | 37° |
| 2026-05-06 01:25 | 35.94958 | 120.29065 | 31029 ft | 494 kts | 37° |
| 2026-05-06 01:25 | 36.00036 | 120.34810 | 31013 ft | 492 kts | 36° |
| 2026-05-06 01:26 | 36.05064 | 120.40507 | 31013 ft | 495 kts | 37° |
| 2026-05-06 01:26 | 36.10149 | 120.46297 | 31012 ft | 495 kts | 37° |
| 2026-05-06 01:27 | 36.15234 | 120.52000 | 30979 ft | 489 kts | 29° |
| 2026-05-06 01:27 | 36.18137 | 120.54080 | 30988 ft | 478 kts | 17° |
| 2026-05-06 01:27 | 36.21252 | 120.55315 | 31000 ft | 466 kts | 5° |
| 2026-05-06 01:28 | 36.24449 | 120.55672 | 31002 ft | 458 kts | 353° |
| 2026-05-06 01:28 | 36.27575 | 120.55147 | 31007 ft | 454 kts | 341° |
| 2026-05-06 01:28 | 36.33439 | 120.52341 | 31014 ft | 455 kts | 340° |
| 2026-05-06 01:29 | 36.36574 | 120.51653 | 31014 ft | 462 kts | 352° |
| 2026-05-06 01:29 | 36.39827 | 120.51847 | 31003 ft | 471 kts | 4° |
| 2026-05-06 01:29 | 36.46188 | 120.54054 | 31024 ft | 476 kts | 10° |
| 2026-05-06 01:30 | 36.52551 | 120.56270 | 31008 ft | 476 kts | 9° |
| 2026-05-06 01:30 | 36.59027 | 120.57507 | 31011 ft | 468 kts | 0° |
| 2026-05-06 01:31 | 36.65472 | 120.58515 | 31004 ft | 469 kts | 1° |
| 2026-05-06 01:31 | 36.71965 | 120.59587 | 31001 ft | 468 kts | 2° |
| 2026-05-06 01:32 | 36.78434 | 120.60696 | 30998 ft | 468 kts | 2° |
| 2026-05-06 01:32 | 36.84901 | 120.61829 | 30999 ft | 469 kts | 2° |
| 2026-05-06 01:33 | 36.91362 | 120.62917 | 31002 ft | 469 kts | 1° |
| 2026-05-06 01:33 | 36.97826 | 120.64105 | 31000 ft | 468 kts | 2° |
| 2026-05-06 01:34 | 37.04308 | 120.65311 | 30993 ft | 469 kts | 3° |
| 2026-05-06 01:34 | 37.10780 | 120.66518 | 30996 ft | 471 kts | 3° |
| 2026-05-06 01:35 | 37.17252 | 120.67738 | 31005 ft | 470 kts | 3° |
| 2026-05-06 01:35 | 37.23719 | 120.68945 | 30994 ft | 470 kts | 3° |
| 2026-05-06 01:36 | 37.30179 | 120.70164 | 31003 ft | 469 kts | 2° |
| 2026-05-06 01:36 | 37.36634 | 120.71375 | 31003 ft | 470 kts | 2° |
| 2026-05-06 01:37 | 37.43102 | 120.72594 | 30998 ft | 471 kts | 2° |
| 2026-05-06 01:37 | 37.49584 | 120.73835 | 30993 ft | 469 kts | 2° |
| 2026-05-06 01:38 | 37.56020 | 120.75021 | 30986 ft | 469 kts | 2° |
| 2026-05-06 01:38 | 37.62487 | 120.75972 | 30988 ft | 465 kts | 359° |
| 2026-05-06 01:39 | 37.69003 | 120.76764 | 30988 ft | 466 kts | 359° |
| 2026-05-06 01:39 | 37.75490 | 120.77543 | 30980 ft | 467 kts | 359° |
| 2026-05-06 01:40 | 37.82024 | 120.78327 | 30976 ft | 467 kts | 359° |
| 2026-05-06 01:40 | 37.88475 | 120.79119 | 30966 ft | 464 kts | 359° |
| 2026-05-06 01:41 | 37.95009 | 120.79897 | 30969 ft | 467 kts | 359° |
| 2026-05-06 01:41 | 38.01468 | 120.81234 | 30922 ft | 479 kts | 13° |
| 2026-05-06 01:42 | 38.04509 | 120.83065 | 30931 ft | 493 kts | 24° |
| 2026-05-06 01:42 | 38.07874 | 120.85799 | 30968 ft | 493 kts | 25° |
| 2026-05-06 01:42 | 38.13742 | 120.90266 | 30960 ft | 490 kts | 24° |
| 2026-05-06 01:43 | 38.19584 | 120.94691 | 30953 ft | 490 kts | 24° |
| 2026-05-06 01:43 | 38.25069 | 121.00067 | 30907 ft | 509 kts | 43° |
| 2026-05-06 01:44 | 38.27152 | 121.03751 | 30922 ft | 519 kts | 55° |
| 2026-05-06 01:44 | 38.28663 | 121.07947 | 30941 ft | 526 kts | 64° |
| 2026-05-06 01:44 | 38.31356 | 121.16554 | 30956 ft | 519 kts | 61° |
| 2026-05-06 01:45 | 38.34209 | 121.24989 | 30946 ft | 514 kts | 61° |
| 2026-05-06 01:45 | 38.37112 | 121.33347 | 30958 ft | 515 kts | 60° |
| 2026-05-06 01:46 | 38.39996 | 121.41811 | 30957 ft | 517 kts | 61° |
| 2026-05-06 01:46 | 38.42977 | 121.50082 | 30961 ft | 511 kts | 55° |
| 2026-05-06 01:47 | 38.46305 | 121.58196 | 30980 ft | 515 kts | 57° |
| 2026-05-06 01:47 | 38.49569 | 121.66336 | 30973 ft | 515 kts | 57° |
| 2026-05-06 01:48 | 38.52816 | 121.74455 | 30974 ft | 514 kts | 58° |
| 2026-05-06 01:48 | 38.56051 | 121.82592 | 30986 ft | 517 kts | 57° |
| 2026-05-06 01:49 | 38.59301 | 121.90801 | 30984 ft | 513 kts | 57° |
| 2026-05-06 01:49 | 38.62541 | 121.98985 | 30981 ft | 513 kts | 57° |
| 2026-05-06 01:50 | 38.65797 | 122.07153 | 30993 ft | 516 kts | 58° |
| 2026-05-06 01:50 | 38.69321 | 122.15094 | 30955 ft | 504 kts | 45° |
| 2026-05-06 01:51 | 38.71728 | 122.18242 | 30970 ft | 492 kts | 32° |
| 2026-05-06 01:51 | 38.74521 | 122.20644 | 30992 ft | 484 kts | 22° |
| 2026-05-06 01:51 | 38.80421 | 122.25005 | 31038 ft | 493 kts | 24° |
| 2026-05-06 01:52 | 38.86248 | 122.29552 | 31011 ft | 491 kts | 24° |
| 2026-05-06 01:52 | 38.92088 | 122.34148 | 31004 ft | 492 kts | 24° |
| 2026-05-06 01:53 | 38.97921 | 122.38754 | 31005 ft | 492 kts | 24° |
| 2026-05-06 01:53 | 39.03749 | 122.43376 | 31023 ft | 492 kts | 24° |
| 2026-05-06 01:54 | 39.09533 | 122.47979 | 31022 ft | 490 kts | 24° |
| 2026-05-06 01:54 | 39.15361 | 122.52605 | 31027 ft | 492 kts | 24° |
| 2026-05-06 01:55 | 39.21177 | 122.57239 | 31019 ft | 491 kts | 24° |
| 2026-05-06 01:55 | 39.26996 | 122.61920 | 31022 ft | 493 kts | 25° |
| 2026-05-06 01:56 | 39.32966 | 122.66187 | 31002 ft | 487 kts | 21° |
| 2026-05-06 01:56 | 39.38918 | 122.70388 | 31016 ft | 490 kts | 21° |
| 2026-05-06 01:57 | 39.44913 | 122.74659 | 31016 ft | 489 kts | 22° |
| 2026-05-06 01:57 | 39.50858 | 122.78906 | 31016 ft | 490 kts | 22° |
| 2026-05-06 01:58 | 39.56829 | 122.83180 | 31025 ft | 490 kts | 22° |
| 2026-05-06 01:58 | 39.62812 | 122.87479 | 31019 ft | 490 kts | 22° |
| 2026-05-06 01:59 | 39.68817 | 122.91802 | 31023 ft | 490 kts | 21° |
| 2026-05-06 01:59 | 39.74773 | 122.96088 | 31025 ft | 491 kts | 22° |
| 2026-05-06 02:00 | 39.80788 | 123.00445 | 31031 ft | 490 kts | 22° |
| 2026-05-06 02:00 | 39.86853 | 123.04829 | 31031 ft | 492 kts | 22° |
| 2026-05-06 02:01 | 39.92838 | 123.09180 | 31033 ft | 490 kts | 22° |
| 2026-05-06 02:01 | 39.98817 | 123.13514 | 31036 ft | 493 kts | 21° |
| 2026-05-06 02:02 | 40.04831 | 123.17931 | 31031 ft | 491 kts | 21° |
| 2026-05-06 02:02 | 40.10818 | 123.22212 | 31047 ft | 490 kts | 21° |
| 2026-05-06 02:03 | 40.16820 | 123.26530 | 31050 ft | 493 kts | 21° |
| 2026-05-06 02:03 | 40.22811 | 123.30856 | 31039 ft | 492 kts | 21° |
| 2026-05-06 02:04 | 40.28818 | 123.35216 | 31035 ft | 491 kts | 21° |
| 2026-05-06 02:04 | 40.34853 | 123.39582 | 31034 ft | 492 kts | 21° |
| 2026-05-06 02:05 | 40.40868 | 123.43949 | 31035 ft | 492 kts | 21° |
| 2026-05-06 02:05 | 40.46839 | 123.48305 | 31032 ft | 490 kts | 21° |
| 2026-05-06 02:06 | 40.52913 | 123.52709 | 31041 ft | 493 kts | 22° |
| 2026-05-06 02:06 | 40.58932 | 123.57166 | 31034 ft | 494 kts | 21° |
| 2026-05-06 02:07 | 40.64977 | 123.61572 | 31028 ft | 489 kts | 21° |
| 2026-05-06 02:07 | 40.70963 | 123.65946 | 31029 ft | 491 kts | 22° |
| 2026-05-06 02:08 | 40.76942 | 123.70317 | 31042 ft | 494 kts | 22° |
| 2026-05-06 02:08 | 40.82982 | 123.74808 | 31042 ft | 494 kts | 22° |
| 2026-05-06 02:09 | 40.89019 | 123.79087 | 31044 ft | 493 kts | 21° |
| 2026-05-06 02:09 | 40.95109 | 123.83435 | 31050 ft | 492 kts | 21° |
| 2026-05-06 02:10 | 41.01215 | 123.87806 | 31052 ft | 492 kts | 21° |
| 2026-05-06 02:10 | 41.07329 | 123.92183 | 31042 ft | 493 kts | 21° |
| 2026-05-06 02:11 | 41.13430 | 123.96572 | 31033 ft | 497 kts | 21° |
| 2026-05-06 02:11 | 41.19480 | 124.00927 | 31049 ft | 495 kts | 22° |
| 2026-05-06 02:12 | 41.25579 | 124.05333 | 31024 ft | 498 kts | 21° |
| 2026-05-06 02:12 | 41.31620 | 124.09685 | 31026 ft | 493 kts | 21° |
| 2026-05-06 02:13 | 41.37732 | 124.14127 | 31019 ft | 494 kts | 22° |
| 2026-05-06 02:14 | 41.50165 | 124.23404 | 31016 ft | 498 kts | 22° |
| 2026-05-06 02:14 | 41.56200 | 124.27954 | 31018 ft | 497 kts | 22° |
| 2026-05-06 02:15 | 41.62240 | 124.32490 | 31011 ft | 500 kts | 22° |
| 2026-05-06 02:15 | 41.68272 | 124.37065 | 30993 ft | 500 kts | 22° |
| 2026-05-06 02:16 | 41.74346 | 124.41669 | 30983 ft | 500 kts | 22° |
| 2026-05-06 02:16 | 41.80371 | 124.46243 | 30978 ft | 500 kts | 22° |
| 2026-05-06 02:17 | 41.86421 | 124.50852 | 30990 ft | 500 kts | 22° |
| 2026-05-06 02:17 | 41.92494 | 124.55476 | 30982 ft | 500 kts | 23° |
| 2026-05-06 02:18 | 41.98508 | 124.60143 | 30976 ft | 501 kts | 22° |
| 2026-05-06 02:18 | 42.04720 | 124.64336 | 30981 ft | 498 kts | 19° |
| 2026-05-06 02:19 | 42.10921 | 124.68567 | 30962 ft | 500 kts | 20° |
| 2026-05-06 02:19 | 42.17096 | 124.72797 | 30966 ft | 501 kts | 20° |
| 2026-05-06 02:20 | 42.26424 | 124.79205 | 30988 ft | 500 kts | 20° |
| 2026-05-06 02:21 | 42.32621 | 124.83494 | 30977 ft | 500 kts | 20° |
| 2026-05-06 02:21 | 42.38820 | 124.87790 | 30963 ft | 500 kts | 20° |
| 2026-05-06 02:22 | 42.45065 | 124.92107 | 30983 ft | 503 kts | 20° |
| 2026-05-06 02:22 | 42.51296 | 124.96435 | 30988 ft | 503 kts | 20° |
| 2026-05-06 02:23 | 42.57494 | 125.00765 | 30979 ft | 503 kts | 20° |
| 2026-05-06 02:23 | 42.63712 | 125.05091 | 30962 ft | 503 kts | 20° |
| 2026-05-06 02:24 | 42.69991 | 125.09490 | 30988 ft | 504 kts | 20° |
| 2026-05-06 02:24 | 42.76206 | 125.13830 | 30973 ft | 505 kts | 20° |
| 2026-05-06 02:25 | 42.82437 | 125.18288 | 30978 ft | 505 kts | 22° |
| 2026-05-06 02:25 | 42.88703 | 125.22604 | 30979 ft | 503 kts | 20° |
| 2026-05-06 02:26 | 42.94970 | 125.26923 | 30964 ft | 506 kts | 20° |
| 2026-05-06 02:26 | 43.01239 | 125.31289 | 30994 ft | 506 kts | 20° |
| 2026-05-06 02:27 | 43.07507 | 125.35654 | 30975 ft | 507 kts | 20° |
| 2026-05-06 02:27 | 43.13802 | 125.40054 | 30986 ft | 505 kts | 20° |
| 2026-05-06 02:28 | 43.20090 | 125.44438 | 30981 ft | 506 kts | 20° |
| 2026-05-06 02:28 | 43.26368 | 125.48862 | 30977 ft | 508 kts | 20° |
| 2026-05-06 02:29 | 43.32647 | 125.53281 | 30964 ft | 498 kts | 20° |
| 2026-05-06 02:29 | 43.35684 | 125.55422 | 30815 ft | 486 kts | 19° |
| 2026-05-06 02:29 | 43.38685 | 125.57523 | 30514 ft | 482 kts | 19° |
| 2026-05-06 02:29 | 43.41690 | 125.59634 | 30114 ft | 480 kts | 20° |
| 2026-05-06 02:30 | 43.44665 | 125.61721 | 29707 ft | 476 kts | 19° |
| 2026-05-06 02:30 | 43.47631 | 125.63834 | 29287 ft | 473 kts | 20° |
| 2026-05-06 02:30 | 43.50587 | 125.65916 | 28863 ft | 471 kts | 21° |
| 2026-05-06 02:30 | 43.53500 | 125.67979 | 28441 ft | 468 kts | 20° |
| 2026-05-06 02:31 | 43.56407 | 125.70051 | 28030 ft | 467 kts | 20° |
| 2026-05-06 02:31 | 43.59276 | 125.72086 | 27615 ft | 465 kts | 21° |
| 2026-05-06 02:31 | 43.62155 | 125.74133 | 27214 ft | 464 kts | 21° |
| 2026-05-06 02:31 | 43.65008 | 125.76155 | 26825 ft | 462 kts | 20° |
| 2026-05-06 02:32 | 43.67858 | 125.78172 | 26444 ft | 460 kts | 21° |
| 2026-05-06 02:32 | 43.70712 | 125.80217 | 26043 ft | 458 kts | 21° |
| 2026-05-06 02:32 | 43.73517 | 125.82244 | 25652 ft | 457 kts | 21° |
| 2026-05-06 02:32 | 43.76359 | 125.84304 | 25244 ft | 453 kts | 18° |
| 2026-05-06 02:33 | 43.79266 | 125.85706 | 24831 ft | 439 kts | 4° |
| 2026-05-06 02:33 | 43.81276 | 125.86149 | 24554 ft | 431 kts | 358° |
| 2026-05-06 02:33 | 43.88192 | 125.87389 | 23676 ft | 427 kts | 0° |
| 2026-05-06 02:34 | 43.91096 | 125.87955 | 23320 ft | 426 kts | 0° |
| 2026-05-06 02:34 | 43.94020 | 125.88852 | 22930 ft | 434 kts | 12° |
| 2026-05-06 02:34 | 43.96779 | 125.90674 | 22524 ft | 443 kts | 27° |
| 2026-05-06 02:34 | 43.99249 | 125.93278 | 22154 ft | 448 kts | 36° |
| 2026-05-06 02:35 | 44.01635 | 125.96053 | 21818 ft | 446 kts | 34° |
| 2026-05-06 02:35 | 44.04068 | 125.98769 | 21476 ft | 444 kts | 34° |
| 2026-05-06 02:35 | 44.06463 | 126.01402 | 21091 ft | 440 kts | 27° |
| 2026-05-06 02:35 | 44.09115 | 126.03368 | 20692 ft | 424 kts | 12° |
| 2026-05-06 02:36 | 44.11912 | 126.04379 | 20309 ft | 407 kts | 359° |
| 2026-05-06 02:36 | 44.14694 | 126.04844 | 19947 ft | 402 kts | 358° |
| 2026-05-06 02:36 | 44.17464 | 126.05395 | 19590 ft | 401 kts | 359° |
| 2026-05-06 02:36 | 44.20211 | 126.05978 | 19243 ft | 389 kts | 359° |
| 2026-05-06 02:37 | 44.22854 | 126.06546 | 18939 ft | 381 kts | 358° |
| 2026-05-06 02:37 | 44.25448 | 126.07089 | 18624 ft | 376 kts | 357° |
| 2026-05-06 02:37 | 44.28032 | 126.07642 | 18343 ft | 376 kts | 358° |
| 2026-05-06 02:37 | 44.30606 | 126.08199 | 18112 ft | 376 kts | 358° |
| 2026-05-06 02:38 | 44.33204 | 126.08762 | 17879 ft | 378 kts | 359° |
| 2026-05-06 02:38 | 44.35793 | 126.09342 | 17653 ft | 378 kts | 0° |
| 2026-05-06 02:38 | 44.38394 | 126.10020 | 17410 ft | 380 kts | 2° |
| 2026-05-06 02:38 | 44.40960 | 126.10630 | 17173 ft | 374 kts | 358° |
| 2026-05-06 02:39 | 44.43523 | 126.11123 | 16957 ft | 372 kts | 359° |
| 2026-05-06 02:39 | 44.46075 | 126.11665 | 16715 ft | 371 kts | 360° |
| 2026-05-06 02:39 | 44.48610 | 126.12228 | 16467 ft | 370 kts | 359° |
| 2026-05-06 02:39 | 44.51167 | 126.12844 | 16204 ft | 369 kts | 1° |
| 2026-05-06 02:40 | 44.53659 | 126.13392 | 15956 ft | 363 kts | 359° |
| 2026-05-06 02:40 | 44.56142 | 126.13905 | 15692 ft | 361 kts | 0° |
| 2026-05-06 02:40 | 44.58612 | 126.14462 | 15467 ft | 360 kts | 1° |
| 2026-05-06 02:40 | 44.61070 | 126.15060 | 15219 ft | 360 kts | 2° |
| 2026-05-06 02:41 | 44.63537 | 126.15613 | 14991 ft | 355 kts | 360° |
| 2026-05-06 02:41 | 44.65959 | 126.16109 | 14757 ft | 355 kts | 1° |
| 2026-05-06 02:41 | 44.68406 | 126.16667 | 14528 ft | 354 kts | 2° |
| 2026-05-06 02:41 | 44.70813 | 126.17218 | 14284 ft | 353 kts | 2° |
| 2026-05-06 02:42 | 44.73217 | 126.17703 | 14030 ft | 346 kts | 356° |
| 2026-05-06 02:42 | 44.75622 | 126.17859 | 13782 ft | 342 kts | 355° |
| 2026-05-06 02:42 | 44.77983 | 126.18050 | 13544 ft | 340 kts | 356° |
| 2026-05-06 02:42 | 44.80322 | 126.18247 | 13305 ft | 336 kts | 356° |
| 2026-05-06 02:43 | 44.82669 | 126.18442 | 13055 ft | 333 kts | 357° |
| 2026-05-06 02:43 | 44.84950 | 126.18639 | 12801 ft | 329 kts | 357° |
| 2026-05-06 02:43 | 44.87229 | 126.18843 | 12554 ft | 325 kts | 358° |
| 2026-05-06 02:43 | 44.89467 | 126.19041 | 12300 ft | 322 kts | 359° |
| 2026-05-06 02:44 | 44.91695 | 126.19259 | 12047 ft | 320 kts | 0° |
| 2026-05-06 02:44 | 44.93916 | 126.19518 | 11803 ft | 317 kts | 0° |
| 2026-05-06 02:44 | 44.96075 | 126.19709 | 11572 ft | 314 kts | 360° |
| 2026-05-06 02:44 | 44.98244 | 126.19887 | 11328 ft | 312 kts | 1° |
| 2026-05-06 02:45 | 45.00405 | 126.20071 | 11080 ft | 310 kts | 1° |
| 2026-05-06 02:45 | 45.02571 | 126.20274 | 10835 ft | 308 kts | 2° |
| 2026-05-06 02:45 | 45.04689 | 126.20474 | 10595 ft | 305 kts | 2° |
| 2026-05-06 02:45 | 45.06787 | 126.20667 | 10345 ft | 302 kts | 2° |
| 2026-05-06 02:46 | 45.08836 | 126.20856 | 10080 ft | 292 kts | 2° |
| 2026-05-06 02:46 | 45.10828 | 126.21037 | 9839 ft | 280 kts | 2° |
| 2026-05-06 02:46 | 45.12759 | 126.21217 | 9774 ft | 272 kts | 2° |
| 2026-05-06 02:46 | 45.14630 | 126.21400 | 9764 ft | 272 kts | 2° |
| 2026-05-06 02:47 | 45.16512 | 126.21581 | 9770 ft | 274 kts | 2° |
| 2026-05-06 02:47 | 45.18447 | 126.21763 | 9656 ft | 277 kts | 2° |
| 2026-05-06 02:47 | 45.20351 | 126.21944 | 9471 ft | 274 kts | 2° |
| 2026-05-06 02:47 | 45.22234 | 126.22115 | 9284 ft | 273 kts | 3° |
| 2026-05-06 02:48 | 45.24134 | 126.22285 | 9096 ft | 272 kts | 3° |
| 2026-05-06 02:48 | 45.26014 | 126.22464 | 8916 ft | 271 kts | 2° |
| 2026-05-06 02:48 | 45.27912 | 126.22649 | 8738 ft | 270 kts | 2° |
| 2026-05-06 02:48 | 45.29770 | 126.22826 | 8544 ft | 270 kts | 2° |
| 2026-05-06 02:49 | 45.31630 | 126.23003 | 8370 ft | 268 kts | 2° |
| 2026-05-06 02:49 | 45.33496 | 126.23174 | 8189 ft | 268 kts | 2° |
| 2026-05-06 02:49 | 45.35364 | 126.23349 | 8006 ft | 267 kts | 2° |
| 2026-05-06 02:49 | 45.37192 | 126.23521 | 7836 ft | 263 kts | 2° |
| 2026-05-06 02:50 | 45.38993 | 126.23690 | 7650 ft | 257 kts | 2° |
| 2026-05-06 02:50 | 45.40764 | 126.23853 | 7461 ft | 255 kts | 2° |
| 2026-05-06 02:50 | 45.42524 | 126.24013 | 7294 ft | 254 kts | 2° |
| 2026-05-06 02:50 | 45.44304 | 126.24171 | 7168 ft | 254 kts | 2° |
| 2026-05-06 02:51 | 45.46058 | 126.24442 | 7019 ft | 256 kts | 13° |
| 2026-05-06 02:51 | 45.47660 | 126.25495 | 6834 ft | 259 kts | 34° |
| 2026-05-06 02:51 | 45.49045 | 126.27162 | 6674 ft | 259 kts | 38° |
| 2026-05-06 02:51 | 45.50409 | 126.28828 | 6525 ft | 259 kts | 36° |
| 2026-05-06 02:52 | 45.51801 | 126.30464 | 6382 ft | 259 kts | 37° |
| 2026-05-06 02:52 | 45.53193 | 126.32112 | 6236 ft | 258 kts | 37° |
| 2026-05-06 02:52 | 45.54564 | 126.33740 | 6088 ft | 258 kts | 37° |
| 2026-05-06 02:52 | 45.55929 | 126.35357 | 5922 ft | 258 kts | 36° |
| 2026-05-06 02:53 | 45.57318 | 126.36984 | 5782 ft | 258 kts | 36° |
| 2026-05-06 02:53 | 45.58711 | 126.38621 | 5627 ft | 258 kts | 36° |
| 2026-05-06 02:53 | 45.60088 | 126.40241 | 5467 ft | 259 kts | 36° |
| 2026-05-06 02:53 | 45.61477 | 126.41867 | 5329 ft | 259 kts | 36° |
| 2026-05-06 02:54 | 45.62876 | 126.43502 | 5173 ft | 259 kts | 37° |
| 2026-05-06 02:54 | 45.64267 | 126.45144 | 5016 ft | 259 kts | 36° |
| 2026-05-06 02:54 | 45.65646 | 126.46777 | 4858 ft | 259 kts | 36° |
| 2026-05-06 02:54 | 45.67022 | 126.48398 | 4710 ft | 258 kts | 37° |
| 2026-05-06 02:55 | 45.68406 | 126.50034 | 4559 ft | 257 kts | 36° |
| 2026-05-06 02:55 | 45.69783 | 126.51659 | 4379 ft | 255 kts | 37° |
| 2026-05-06 02:55 | 45.71114 | 126.53254 | 4163 ft | 247 kts | 36° |
| 2026-05-06 02:55 | 45.72417 | 126.54794 | 3981 ft | 241 kts | 36° |
| 2026-05-06 02:56 | 45.73695 | 126.56305 | 3908 ft | 236 kts | 36° |
| 2026-05-06 02:56 | 45.74965 | 126.57795 | 3881 ft | 237 kts | 36° |
| 2026-05-06 02:56 | 45.76247 | 126.59314 | 3872 ft | 239 kts | 36° |
| 2026-05-06 02:56 | 45.77541 | 126.60760 | 3897 ft | 233 kts | 26° |
| 2026-05-06 02:57 | 45.79017 | 126.61506 | 3817 ft | 219 kts | 1° |
| 2026-05-06 02:57 | 45.80470 | 126.61272 | 3679 ft | 207 kts | 335° |
| 2026-05-06 02:57 | 45.81633 | 126.60156 | 3546 ft | 200 kts | 308° |
| 2026-05-06 02:57 | 45.82347 | 126.58484 | 3435 ft | 199 kts | 295° |
| 2026-05-06 02:58 | 45.82965 | 126.56714 | 3312 ft | 198 kts | 297° |
| 2026-05-06 02:58 | 45.83624 | 126.54966 | 3186 ft | 197 kts | 297° |
| 2026-05-06 02:58 | 45.84156 | 126.53174 | 3025 ft | 199 kts | 280° |
| 2026-05-06 02:58 | 45.84085 | 126.51186 | 2917 ft | 202 kts | 253° |
| 2026-05-06 02:59 | 45.83353 | 126.49453 | 2804 ft | 208 kts | 225° |
| 2026-05-06 02:59 | 45.82232 | 126.48177 | 2717 ft | 207 kts | 219° |
| 2026-05-06 02:59 | 45.81087 | 126.46934 | 2615 ft | 207 kts | 221° |
| 2026-05-06 02:59 | 45.79961 | 126.45647 | 2517 ft | 206 kts | 221° |
| 2026-05-06 03:00 | 45.78844 | 126.44366 | 2418 ft | 205 kts | 222° |
| 2026-05-06 03:00 | 45.77739 | 126.43078 | 2314 ft | 204 kts | 222° |
| 2026-05-06 03:00 | 45.76651 | 126.41795 | 2208 ft | 204 kts | 222° |
| 2026-05-06 03:00 | 45.75579 | 126.40538 | 2178 ft | 190 kts | 222° |
| 2026-05-06 03:01 | 45.74567 | 126.39349 | 2046 ft | 185 kts | 222° |
| 2026-05-06 03:01 | 45.73597 | 126.38210 | 1969 ft | 181 kts | 221° |
| 2026-05-06 03:01 | 45.72621 | 126.37071 | 1940 ft | 179 kts | 222° |
| 2026-05-06 03:01 | 45.71666 | 126.35944 | 1940 ft | 180 kts | 222° |
| 2026-05-06 03:02 | 45.70697 | 126.34802 | 1946 ft | 181 kts | 222° |
| 2026-05-06 03:02 | 45.69741 | 126.33682 | 2004 ft | 175 kts | 222° |
| 2026-05-06 03:02 | 45.68813 | 126.32594 | 2233 ft | 170 kts | 222° |
| 2026-05-06 03:02 | 45.67902 | 126.31526 | 2206 ft | 170 kts | 223° |
| 2026-05-06 03:03 | 45.66994 | 126.30456 | 1831 ft | 166 kts | 222° |
| 2026-05-06 03:03 | 45.66115 | 126.29419 | 1419 ft | 162 kts | 221° |
| 2026-05-06 03:03 | 45.65255 | 126.28404 | 1044 ft | 159 kts | 221° |
| 2026-05-06 03:03 | 45.64411 | 126.27426 | 744 ft | 156 kts | 220° |
| 2026-05-06 03:04 | 45.63570 | 126.26459 | 566 ft | 156 kts | 220° |
| 2026-05-06 03:04 | 45.62741 | 126.25491 | 514 ft | 139 kts | 220° |
| 2026-05-06 03:04 | 45.62174 | 126.24823 | 514 ft | 73 kts | 220° |
| 2026-05-06 03:04 | 45.61957 | 126.24567 | 513 ft | 8 kts | 219° |
| 2026-05-06 03:05 | 45.61939 | 126.24545 | 513 ft | 5 kts | 219° |
| 2026-05-06 03:05 | 45.61905 | 126.24506 | 513 ft | 6 kts | 219° |
| 2026-05-06 03:05 | 45.61865 | 126.24458 | 513 ft | 8 kts | 220° |
| 2026-05-06 03:05 | 45.61818 | 126.24402 | 513 ft | 9 kts | 220° |
| 2026-05-06 03:06 | 45.61769 | 126.24331 | 513 ft | 10 kts | 235° |
| 2026-05-06 03:06 | 45.61746 | 126.24229 | 513 ft | 10 kts | 262° |
| 2026-05-06 03:06 | 45.61753 | 126.24130 | 513 ft | 9 kts | 304° |
| 2026-05-06 03:06 | 45.61811 | 126.24100 | 513 ft | 9 kts | 13° |
| 2026-05-06 03:07 | 45.61869 | 126.24152 | 513 ft | 10 kts | 38° |
| 2026-05-06 03:07 | 45.61932 | 126.24225 | 513 ft | 12 kts | 39° |
| 2026-05-06 03:07 | 45.62002 | 126.24307 | 513 ft | 13 kts | 39° |
| 2026-05-06 03:07 | 45.62077 | 126.24396 | 513 ft | 14 kts | 39° |
| 2026-05-06 03:08 | 45.62154 | 126.24486 | 513 ft | 14 kts | 39° |
| 2026-05-06 03:08 | 45.62236 | 126.24581 | 513 ft | 15 kts | 40° |
| 2026-05-06 03:08 | 45.62321 | 126.24681 | 513 ft | 16 kts | 39° |
| 2026-05-06 03:08 | 45.62409 | 126.24785 | 513 ft | 16 kts | 39° |
| 2026-05-06 03:09 | 45.62500 | 126.24891 | 513 ft | 17 kts | 39° |
| 2026-05-06 03:09 | 45.62595 | 126.25002 | 513 ft | 17 kts | 39° |
| 2026-05-06 03:09 | 45.62693 | 126.25118 | 513 ft | 18 kts | 39° |
| 2026-05-06 03:09 | 45.62794 | 126.25235 | 513 ft | 19 kts | 39° |
| 2026-05-06 03:10 | 45.62892 | 126.25351 | 513 ft | 16 kts | 39° |
| 2026-05-06 03:10 | 45.62981 | 126.25455 | 513 ft | 16 kts | 39° |
| 2026-05-06 03:10 | 45.63072 | 126.25563 | 513 ft | 17 kts | 39° |
| 2026-05-06 03:10 | 45.63167 | 126.25674 | 513 ft | 17 kts | 39° |
| 2026-05-06 03:11 | 45.63244 | 126.25764 | 513 ft | 10 kts | 39° |
| 2026-05-06 03:11 | 45.63304 | 126.25785 | 513 ft | 9 kts | 330° |
| 2026-05-06 03:11 | 45.63350 | 126.25712 | 513 ft | 10 kts | 307° |
| 2026-05-06 03:11 | 45.63395 | 126.25633 | 513 ft | 9 kts | 309° |
| 2026-05-06 03:12 | 45.63432 | 126.25584 | 513 ft | 6 kts | 343° |
| 2026-05-06 03:12 | 45.63477 | 126.25603 | 513 ft | 7 kts | 50° |
| 2026-05-06 03:12 | 45.63478 | 126.25658 | 513 ft | 1 kts | 127° |
| 2026-05-06 03:12 | 45.63468 | 126.25676 | 513 ft | 2 kts | 130° |
| 2026-05-06 03:13 | 45.63458 | 126.25693 | 513 ft | 2 kts | 131° |
| 2026-05-06 03:13 | 45.63450 | 126.25706 | 513 ft | 2 kts | 129° |
| 2026-05-06 03:13 | 45.63448 | 126.25710 | 513 ft | 0 kts | 129° |